Time;durP1;ratioP1;P1;durP2;ratioP2;P2;SDS_P1;SDS_P2;PMS_P1;PMS_P2;Temp;Humidity;BMP_temperature;BMP_pressure;BME280_temperature;BME280_humidity;BME280_pressure;Samples;Min_cycle;Max_cycle;Signal;HPM_P1;HPM_P2
2024/03/21 00:02:22;;;;;;;35.47;17.33;;;;;;;;;;5105941;28;20239;-40
2024/03/21 00:04:48;;;;;;;28.05;16.75;;;;;;;;;;5105809;28;20211;-39
2024/03/21 00:07:15;;;;;;;25.70;16.25;;;;;;;;;;5105495;28;20042;-41
2024/03/21 00:09:42;;;;;;;32.60;16.25;;;;;;;;;;5105667;28;20032;-45
2024/03/21 00:12:10;;;;;;;27.50;15.40;;;;;;;;;;5105594;28;20028;-45
2024/03/21 00:14:37;;;;;;;26.35;16.20;;;;;;;;;;5104355;28;20028;-43
2024/03/21 00:17:03;;;;;;;27.30;16.33;;;;;;;;;;5104360;28;20388;-41
2024/03/21 00:19:30;;;;;;;25.48;15.52;;;;;;;;;;5105443;28;20027;-43
2024/03/21 00:21:58;;;;;;;25.42;15.48;;;;;;;;;;5104256;28;20079;-50
2024/03/21 00:24:24;;;;;;;30.85;15.25;;;;;;;;;;5105194;28;20081;-42
2024/03/21 00:26:55;;;;;;;24.13;16.05;;;;;;;;;;5104160;28;20065;-42
2024/03/21 00:29:24;;;;;;;28.40;16.73;;;;;;;;;;5104933;28;20216;-39
2024/03/21 00:31:53;;;;;;;35.72;15.98;;;;;;;;;;5105017;28;20024;-42
2024/03/21 00:34:20;;;;;;;36.60;16.65;;;;;;;;;;5104932;28;20246;-47
2024/03/21 00:36:47;;;;;;;23.00;15.43;;;;;;;;;;5103973;28;20236;-45
2024/03/21 00:39:19;;;;;;;31.05;16.20;;;;;;;;;;5103649;28;20043;-39
2024/03/21 00:42:01;;;;;;;27.65;15.80;;;;;;;;;;5123487;28;20023;-37
2024/03/21 00:44:29;;;;;;;23.23;15.13;;;;;;;;;;5123472;28;20081;-40
2024/03/21 00:46:55;;;;;;;31.70;16.63;;;;;;;;;;5123382;28;20027;-43
2024/03/21 00:49:25;;;;;;;20.92;15.48;;;;;;;;;;5106065;28;20031;-45
2024/03/21 00:51:51;;;;;;;26.13;15.30;;;;;;;;;;5123364;28;20201;-43
2024/03/21 00:54:19;;;;;;;34.90;15.52;;;;;;;;;;5106528;28;20031;-43
2024/03/21 00:56:46;;;;;;;27.48;16.00;;;;;;;;;;5122886;28;20032;-39
2024/03/21 00:59:13;;;;;;;27.30;15.10;;;;;;;;;;5123074;28;20024;-39
2024/03/21 01:01:41;;;;;;;22.05;14.70;;;;;;;;;;5123106;28;20347;-43
2024/03/21 01:04:07;;;;;;;24.23;14.85;;;;;;;;;;5122876;28;20023;-48
2024/03/21 01:06:35;;;;;;;30.88;14.65;;;;;;;;;;5123215;28;20019;-42
2024/03/21 01:09:02;;;;;;;26.70;14.68;;;;;;;;;;5123090;28;20162;-45
2024/03/21 01:11:29;;;;;;;23.27;14.13;;;;;;;;;;5123040;28;20047;-41
2024/03/21 01:13:56;;;;;;;27.15;14.38;;;;;;;;;;5104295;28;20312;-44
2024/03/21 01:16:23;;;;;;;27.08;14.85;;;;;;;;;;5104603;28;20031;-43
2024/03/21 01:18:53;;;;;;;27.58;13.90;;;;;;;;;;5104151;28;20038;-43
2024/03/21 01:21:20;;;;;;;28.30;13.98;;;;;;;;;;5086506;28;20035;-44
2024/03/21 01:23:48;;;;;;;38.85;14.15;;;;;;;;;;5103269;28;20020;-37
2024/03/21 01:26:14;;;;;;;34.17;14.82;;;;;;;;;;5104534;28;20047;-44
2024/03/21 01:28:41;;;;;;;30.60;13.95;;;;;;;;;;5099242;28;20032;-48
2024/03/21 01:31:16;;;;;;;28.70;14.00;;;;;;;;;;5095516;28;20036;-44
2024/03/21 01:36:52;;;;;;;29.20;14.23;;;;;;;;;;5091215;28;20227;-47
2024/03/21 01:39:19;;;;;;;31.30;13.07;;;;;;;;;;5094977;28;20036;-51
2024/03/21 01:41:51;;;;;;;25.40;13.43;;;;;;;;;;5081510;28;20029;-46
2024/03/21 01:44:21;;;;;;;20.95;13.48;;;;;;;;;;5083940;28;20056;-48
2024/03/21 01:46:48;;;;;;;25.50;14.07;;;;;;;;;;5083797;28;20023;-51
2024/03/21 01:49:15;;;;;;;22.42;13.30;;;;;;;;;;5086049;28;20058;-53
2024/03/21 01:51:48;;;;;;;24.75;13.82;;;;;;;;;;5087734;28;20324;-48
2024/03/21 01:54:17;;;;;;;21.83;13.27;;;;;;;;;;5087760;28;20031;-50
2024/03/21 01:56:44;;;;;;;23.75;13.90;;;;;;;;;;5087774;28;20021;-48
2024/03/21 01:59:12;;;;;;;24.27;13.70;;;;;;;;;;5087841;28;20231;-50
2024/03/21 02:01:40;;;;;;;23.70;13.98;;;;;;;;;;5092452;28;20250;-47
2024/03/21 02:04:06;;;;;;;31.15;14.32;;;;;;;;;;5106513;28;20020;-47
2024/03/21 02:06:35;;;;;;;25.60;14.00;;;;;;;;;;5107741;28;20024;-52
2024/03/21 02:09:03;;;;;;;25.70;14.07;;;;;;;;;;5107849;28;20065;-57
2024/03/21 02:11:30;;;;;;;23.23;14.38;;;;;;;;;;5106584;28;20091;-38
2024/03/21 02:13:57;;;;;;;29.02;15.20;;;;;;;;;;5106758;28;20020;-39
2024/03/21 02:16:24;;;;;;;23.75;15.00;;;;;;;;;;5100981;28;20024;-51
2024/03/21 02:18:51;;;;;;;30.35;15.48;;;;;;;;;;5086475;28;20422;-52
2024/03/21 02:24:02;;;;;;;81.68;18.65;;;;;;;;;;5087281;28;20039;-46
2024/03/21 02:26:29;;;;;;;38.20;15.93;;;;;;;;;;5087287;28;20027;-48
2024/03/21 02:28:56;;;;;;;43.33;15.73;;;;;;;;;;5087302;28;20032;-47
2024/03/21 02:31:23;;;;;;;29.77;15.38;;;;;;;;;;5088429;28;20024;-50
2024/03/21 02:33:50;;;;;;;31.20;15.48;;;;;;;;;;5098300;28;20287;-51
2024/03/21 02:36:17;;;;;;;28.52;14.80;;;;;;;;;;5107252;28;20103;-47
2024/03/21 02:38:45;;;;;;;28.35;15.23;;;;;;;;;;5107439;28;20027;-47
2024/03/21 02:41:11;;;;;;;30.95;16.17;;;;;;;;;;5106223;28;20069;-45
2024/03/21 02:43:39;;;;;;;31.65;16.50;;;;;;;;;;5107198;28;20324;-49
2024/03/21 02:46:06;;;;;;;25.05;16.08;;;;;;;;;;5107751;28;20070;-49
2024/03/21 02:48:34;;;;;;;26.88;15.27;;;;;;;;;;5107123;28;20039;-51
2024/03/21 02:51:00;;;;;;;36.47;16.30;;;;;;;;;;5099684;28;20032;-51
2024/03/21 02:53:27;;;;;;;29.80;15.70;;;;;;;;;;5096393;28;20039;-48
2024/03/21 02:55:53;;;;;;;26.75;16.42;;;;;;;;;;5095806;28;20024;-38
2024/03/21 02:58:20;;;;;;;27.10;16.08;;;;;;;;;;5095727;28;20083;-39
2024/03/21 03:00:47;;;;;;;31.73;16.48;;;;;;;;;;5090316;28;20033;-52
2024/03/21 03:03:13;;;;;;;24.02;16.52;;;;;;;;;;5086495;28;20189;-51
2024/03/21 03:05:44;;;;;;;27.48;16.08;;;;;;;;;;5087867;28;20036;-37
2024/03/21 03:08:11;;;;;;;26.92;17.38;;;;;;;;;;5098818;28;20032;-39
2024/03/21 03:10:37;;;;;;;28.20;17.05;;;;;;;;;;5106800;28;20031;-49
2024/03/21 03:13:04;;;;;;;28.00;17.45;;;;;;;;;;5105653;28;20024;-51
2024/03/21 03:15:31;;;;;;;28.55;17.05;;;;;;;;;;5106348;28;20327;-51
2024/03/21 03:17:59;;;;;;;27.65;17.27;;;;;;;;;;5105554;28;20016;-45
2024/03/21 03:20:25;;;;;;;23.83;16.83;;;;;;;;;;5105049;28;20042;-43
2024/03/21 03:22:52;;;;;;;27.63;16.65;;;;;;;;;;5104839;28;20088;-39
2024/03/21 03:25:19;;;;;;;26.00;17.92;;;;;;;;;;5103635;28;20315;-38
2024/03/21 03:27:45;;;;;;;26.52;17.77;;;;;;;;;;5098070;28;20028;-39
2024/03/21 03:30:13;;;;;;;26.88;16.88;;;;;;;;;;5086551;28;20327;-39
2024/03/21 03:32:47;;;;;;;22.50;16.65;;;;;;;;;;5084824;28;20339;-47
2024/03/21 03:35:40;;;;;;;21.92;17.60;;;;;;;;;;5085959;28;20328;-48
2024/03/21 03:38:08;;;;;;;21.27;17.77;;;;;;;;;;5085643;28;20266;-50
2024/03/21 03:40:35;;;;;;;25.48;18.20;;;;;;;;;;5093775;28;20032;-47
2024/03/21 03:43:02;;;;;;;22.85;17.95;;;;;;;;;;5106333;28;20343;-48
2024/03/21 03:45:29;;;;;;;22.83;18.63;;;;;;;;;;5101279;28;20039;-43
2024/03/21 03:47:55;;;;;;;25.63;18.52;;;;;;;;;;5093753;28;20050;-51
2024/03/21 03:50:22;;;;;;;24.45;19.40;;;;;;;;;;5095055;28;20028;-43
2024/03/21 03:52:48;;;;;;;22.80;19.27;;;;;;;;;;5091415;28;20012;-38
2024/03/21 03:55:15;;;;;;;26.52;19.45;;;;;;;;;;5103075;28;20287;-37
2024/03/21 03:57:41;;;;;;;24.58;19.08;;;;;;;;;;5099219;28;20024;-41
2024/03/21 04:00:10;;;;;;;27.02;19.23;;;;;;;;;;5090370;28;20028;-40
2024/03/21 04:02:43;;;;;;;24.73;19.45;;;;;;;;;;5090949;28;20063;-41
2024/03/21 04:05:09;;;;;;;25.08;18.88;;;;;;;;;;5091779;28;20249;-48
2024/03/21 04:07:36;;;;;;;21.65;18.23;;;;;;;;;;5092109;28;20031;-48
2024/03/21 04:10:05;;;;;;;27.30;19.10;;;;;;;;;;5097229;28;20043;-43
2024/03/21 04:12:32;;;;;;;29.45;19.67;;;;;;;;;;5097604;28;20025;-40
2024/03/21 04:14:59;;;;;;;26.90;19.65;;;;;;;;;;5100219;28;20016;-40
2024/03/21 04:17:25;;;;;;;29.65;19.45;;;;;;;;;;5094628;28;20020;-44
2024/03/21 04:19:52;;;;;;;24.13;18.35;;;;;;;;;;5085118;28;20084;-42
2024/03/21 04:22:19;;;;;;;25.52;18.30;;;;;;;;;;5085618;28;20073;-42
2024/03/21 04:24:47;;;;;;;23.33;18.73;;;;;;;;;;5098062;28;20219;-40
2024/03/21 04:27:14;;;;;;;25.13;19.52;;;;;;;;;;5101379;28;20027;-38
2024/03/21 04:29:40;;;;;;;24.48;18.70;;;;;;;;;;5097768;28;20036;-45
2024/03/21 04:32:10;;;;;;;21.30;18.30;;;;;;;;;;5085311;28;20022;-43
2024/03/21 04:34:36;;;;;;;24.73;18.23;;;;;;;;;;5083041;28;20024;-49
2024/03/21 04:37:03;;;;;;;24.88;17.90;;;;;;;;;;5083355;28;20028;-44
2024/03/21 04:39:30;;;;;;;23.88;17.67;;;;;;;;;;5083090;28;20028;-44
2024/03/21 04:41:56;;;;;;;24.02;17.33;;;;;;;;;;5082979;28;20020;-41
2024/03/21 04:44:23;;;;;;;22.27;17.08;;;;;;;;;;5082912;28;20101;-44
2024/03/21 04:46:49;;;;;;;26.42;16.63;;;;;;;;;;5082833;28;20356;-39
2024/03/21 04:49:16;;;;;;;22.33;17.08;;;;;;;;;;5082812;28;20047;-41
2024/03/21 04:51:43;;;;;;;23.75;17.85;;;;;;;;;;5091780;28;20047;-48
2024/03/21 04:54:09;;;;;;;27.02;18.83;;;;;;;;;;5087017;28;20204;-44
2024/03/21 04:56:36;;;;;;;25.73;18.60;;;;;;;;;;5082803;28;20212;-39
2024/03/21 04:59:03;;;;;;;28.42;18.50;;;;;;;;;;5082561;28;20044;-41
2024/03/21 05:01:30;;;;;;;28.05;18.17;;;;;;;;;;5083877;28;20023;-38
2024/03/21 05:03:57;;;;;;;26.80;18.02;;;;;;;;;;5083770;28;20024;-41
2024/03/21 05:06:24;;;;;;;28.88;19.52;;;;;;;;;;5083898;28;20210;-40
2024/03/21 05:08:50;;;;;;;27.35;19.90;;;;;;;;;;5083631;28;20020;-39
2024/03/21 05:11:17;;;;;;;29.90;19.13;;;;;;;;;;5088682;28;20030;-40
2024/03/21 05:13:47;;;;;;;28.10;19.45;;;;;;;;;;5097523;28;20309;-46
2024/03/21 05:16:14;;;;;;;28.30;19.63;;;;;;;;;;5096502;28;20032;-38
2024/03/21 05:18:41;;;;;;;28.35;19.00;;;;;;;;;;5084194;28;20024;-41
2024/03/21 05:21:07;;;;;;;25.27;19.08;;;;;;;;;;5102560;28;20062;-39
2024/03/21 05:23:34;;;;;;;28.45;19.17;;;;;;;;;;5103067;28;20016;-39
2024/03/21 05:26:00;;;;;;;30.42;19.55;;;;;;;;;;5103480;28;20032;-41
2024/03/21 05:28:27;;;;;;;27.20;18.70;;;;;;;;;;5104098;28;20020;-43
2024/03/21 05:30:54;;;;;;;28.92;19.73;;;;;;;;;;5104602;28;20132;-39
2024/03/21 05:33:21;;;;;;;26.17;19.27;;;;;;;;;;5104448;28;20023;-42
2024/03/21 05:35:47;;;;;;;28.08;19.48;;;;;;;;;;5104011;28;20048;-39
2024/03/21 05:38:15;;;;;;;27.88;19.88;;;;;;;;;;5104298;28;20373;-41
2024/03/21 05:40:42;;;;;;;23.45;19.75;;;;;;;;;;5104696;28;20056;-46
2024/03/21 05:43:08;;;;;;;26.58;19.60;;;;;;;;;;5103939;28;20024;-41
2024/03/21 05:45:35;;;;;;;27.30;20.35;;;;;;;;;;5104508;28;20031;-41
2024/03/21 05:48:03;;;;;;;26.40;20.55;;;;;;;;;;5104020;28;20030;-44
2024/03/21 05:50:29;;;;;;;27.95;20.45;;;;;;;;;;5104115;28;20111;-46
2024/03/21 05:52:56;;;;;;;29.15;20.38;;;;;;;;;;5104234;28;20012;-46
2024/03/21 05:55:22;;;;;;;25.08;19.80;;;;;;;;;;5103673;28;20024;-40
2024/03/21 05:57:49;;;;;;;28.70;20.95;;;;;;;;;;5103789;28;20024;-43
2024/03/21 06:00:17;;;;;;;28.73;20.13;;;;;;;;;;5104182;28;20024;-44
2024/03/21 06:02:43;;;;;;;26.10;19.52;;;;;;;;;;5103882;28;20024;-39
2024/03/21 06:05:10;;;;;;;27.98;20.05;;;;;;;;;;5103961;28;20023;-39
2024/03/21 06:07:37;;;;;;;28.38;21.17;;;;;;;;;;5103995;28;20020;-40
2024/03/21 06:10:05;;;;;;;27.67;21.08;;;;;;;;;;5103936;28;20177;-43
2024/03/21 06:12:32;;;;;;;29.23;20.83;;;;;;;;;;5103676;28;20028;-43
2024/03/21 06:14:58;;;;;;;30.35;21.00;;;;;;;;;;5103963;28;20049;-44
2024/03/21 06:17:25;;;;;;;29.50;20.25;;;;;;;;;;5103759;28;20023;-43
2024/03/21 06:19:52;;;;;;;23.38;19.92;;;;;;;;;;5103730;28;20028;-43
2024/03/21 06:22:19;;;;;;;25.67;21.00;;;;;;;;;;5103720;28;20043;-45
2024/03/21 06:24:45;;;;;;;26.95;20.48;;;;;;;;;;5103901;28;20024;-43
2024/03/21 06:27:12;;;;;;;25.48;20.27;;;;;;;;;;5103550;28;20083;-46
2024/03/21 06:29:38;;;;;;;22.98;20.58;;;;;;;;;;5103835;28;20032;-42
2024/03/21 06:32:05;;;;;;;23.55;19.83;;;;;;;;;;5103599;28;20028;-42
2024/03/21 06:34:39;;;;;;;26.17;20.27;;;;;;;;;;5104343;28;20054;-39
2024/03/21 06:37:06;;;;;;;27.73;21.20;;;;;;;;;;5106969;28;20016;-42
2024/03/21 06:39:32;;;;;;;26.90;21.00;;;;;;;;;;5107358;28;20024;-41
2024/03/21 06:41:59;;;;;;;26.30;20.83;;;;;;;;;;5107189;28;20020;-42
2024/03/21 06:44:25;;;;;;;28.65;20.48;;;;;;;;;;5107288;28;20039;-42
2024/03/21 06:46:52;;;;;;;28.70;21.40;;;;;;;;;;5107323;28;20212;-47
2024/03/21 06:49:18;;;;;;;28.35;21.00;;;;;;;;;;5107127;28;20050;-41
2024/03/21 06:51:45;;;;;;;25.05;20.58;;;;;;;;;;5107124;28;20032;-44
2024/03/21 06:54:12;;;;;;;29.90;21.52;;;;;;;;;;5107109;28;20020;-39
2024/03/21 06:56:39;;;;;;;26.05;21.13;;;;;;;;;;5106988;28;20316;-47
2024/03/21 06:59:05;;;;;;;27.48;21.42;;;;;;;;;;5106835;28;20395;-38
2024/03/21 07:01:32;;;;;;;24.60;21.00;;;;;;;;;;5107012;28;20047;-44
2024/03/21 07:03:59;;;;;;;31.92;21.92;;;;;;;;;;5106883;28;20019;-42
2024/03/21 07:06:25;;;;;;;32.13;20.55;;;;;;;;;;5106754;28;20023;-39
2024/03/21 07:08:52;;;;;;;31.35;21.80;;;;;;;;;;5106829;28;20039;-44
2024/03/21 07:11:18;;;;;;;23.67;21.08;;;;;;;;;;5107177;28;20083;-41
2024/03/21 07:13:45;;;;;;;24.55;21.02;;;;;;;;;;5106598;28;20024;-39
2024/03/21 07:16:16;;;;;;;28.08;21.42;;;;;;;;;;5103819;28;20023;-40
2024/03/21 07:18:43;;;;;;;25.65;20.90;;;;;;;;;;5103245;28;20060;-42
2024/03/21 07:21:10;;;;;;;28.98;21.75;;;;;;;;;;5106450;28;20342;-41
2024/03/21 07:23:36;;;;;;;26.75;21.63;;;;;;;;;;5106595;28;20028;-40
2024/03/21 07:26:03;;;;;;;28.65;21.77;;;;;;;;;;5106946;28;20027;-42
2024/03/21 07:28:29;;;;;;;26.42;20.98;;;;;;;;;;5106346;28;20019;-39
2024/03/21 07:30:56;;;;;;;30.08;21.45;;;;;;;;;;5098633;28;20052;-38
2024/03/21 07:33:23;;;;;;;26.08;21.80;;;;;;;;;;5086091;28;20050;-38
2024/03/21 07:35:56;;;;;;;25.17;21.48;;;;;;;;;;5085829;28;20059;-39
2024/03/21 07:38:23;;;;;;;26.63;22.02;;;;;;;;;;5095384;28;20020;-38
2024/03/21 07:40:59;;;;;;;26.35;21.45;;;;;;;;;;5106575;28;20211;-45
2024/03/21 07:43:26;;;;;;;25.80;21.80;;;;;;;;;;5106106;28;20046;-49
2024/03/21 07:45:53;;;;;;;25.30;20.63;;;;;;;;;;5105645;28;20069;-42
2024/03/21 07:48:19;;;;;;;26.08;21.60;;;;;;;;;;5105878;28;20028;-40
2024/03/21 07:50:46;;;;;;;27.40;21.65;;;;;;;;;;5106266;28;20019;-44
2024/03/21 07:53:13;;;;;;;31.70;21.08;;;;;;;;;;5105270;28;20019;-42
2024/03/21 07:55:39;;;;;;;27.90;21.63;;;;;;;;;;5106183;28;20028;-44
2024/03/21 07:58:06;;;;;;;25.80;19.83;;;;;;;;;;5105900;28;20020;-42
2024/03/21 08:00:33;;;;;;;27.67;21.67;;;;;;;;;;5106175;28;20027;-38
2024/03/21 08:03:00;;;;;;;30.25;21.58;;;;;;;;;;5105611;28;20020;-39
2024/03/21 08:05:27;;;;;;;29.95;21.23;;;;;;;;;;5105942;28;20063;-39
2024/03/21 08:07:53;;;;;;;27.38;21.60;;;;;;;;;;5105734;28;20051;-38
2024/03/21 08:10:20;;;;;;;25.75;21.15;;;;;;;;;;5105769;28;20024;-41
2024/03/21 08:12:46;;;;;;;24.88;21.25;;;;;;;;;;5105553;28;20136;-38
2024/03/21 08:15:13;;;;;;;24.42;21.23;;;;;;;;;;5105703;28;20050;-42
2024/03/21 08:17:39;;;;;;;28.05;21.50;;;;;;;;;;5105524;28;20024;-38
2024/03/21 08:20:06;;;;;;;27.52;21.30;;;;;;;;;;5105356;28;20038;-38
2024/03/21 08:22:33;;;;;;;26.17;20.42;;;;;;;;;;5105472;28;20024;-40
2024/03/21 08:24:59;;;;;;;26.85;20.55;;;;;;;;;;5105558;28;20028;-39
2024/03/21 08:27:27;;;;;;;27.45;21.52;;;;;;;;;;5105153;28;20024;-42
2024/03/21 08:29:54;;;;;;;28.00;21.75;;;;;;;;;;5105057;28;20043;-41
2024/03/21 08:32:21;;;;;;;26.25;21.42;;;;;;;;;;5105150;28;20189;-50
2024/03/21 08:34:51;;;;;;;27.25;20.83;;;;;;;;;;5105150;28;20031;-46
2024/03/21 08:37:17;;;;;;;24.13;20.90;;;;;;;;;;5105082;28;20178;-45
2024/03/21 08:39:44;;;;;;;27.48;20.92;;;;;;;;;;5105284;28;20028;-59
2024/03/21 08:42:10;;;;;;;24.55;20.40;;;;;;;;;;5104870;28;20350;-53
2024/03/21 08:44:37;;;;;;;25.27;20.50;;;;;;;;;;5105157;28;20032;-39
2024/03/21 08:47:04;;;;;;;23.73;20.52;;;;;;;;;;5104686;28;20319;-41
2024/03/21 08:49:30;;;;;;;22.58;18.95;;;;;;;;;;5099680;28;20208;-41
2024/03/21 08:51:57;;;;;;;22.88;19.70;;;;;;;;;;5104891;28;20051;-43
2024/03/21 08:54:26;;;;;;;26.20;18.95;;;;;;;;;;5104811;28;20106;-41
2024/03/21 08:56:53;;;;;;;24.95;19.48;;;;;;;;;;5104651;28;20023;-39
2024/03/21 08:59:20;;;;;;;23.67;20.13;;;;;;;;;;5103880;28;20137;-39
2024/03/21 09:01:46;;;;;;;22.10;19.17;;;;;;;;;;5102226;28;20020;-41
2024/03/21 09:04:13;;;;;;;21.45;18.35;;;;;;;;;;5104496;28;20307;-40
2024/03/21 09:06:40;;;;;;;22.15;18.35;;;;;;;;;;5104734;28;20266;-40
2024/03/21 09:09:07;;;;;;;22.52;18.98;;;;;;;;;;5104512;28;20027;-40
2024/03/21 09:11:33;;;;;;;22.67;17.60;;;;;;;;;;5104281;28;20019;-49
2024/03/21 09:14:01;;;;;;;21.20;17.38;;;;;;;;;;5104440;28;20016;-41
2024/03/21 09:16:28;;;;;;;19.60;17.33;;;;;;;;;;5104475;28;20069;-40
2024/03/21 09:18:55;;;;;;;23.10;17.25;;;;;;;;;;5103300;28;20033;-40
2024/03/21 09:21:21;;;;;;;24.60;19.05;;;;;;;;;;5104745;28;20032;-42
2024/03/21 09:23:48;;;;;;;20.60;17.17;;;;;;;;;;5104311;28;20019;-48
2024/03/21 09:26:17;;;;;;;22.88;18.20;;;;;;;;;;5104618;28;20032;-42
2024/03/21 09:28:44;;;;;;;20.05;17.70;;;;;;;;;;5104229;28;20027;-39
2024/03/21 09:31:10;;;;;;;21.58;17.63;;;;;;;;;;5104672;28;20050;-43
2024/03/21 09:33:37;;;;;;;21.30;17.38;;;;;;;;;;5104077;28;20019;-42
2024/03/21 09:36:05;;;;;;;19.17;17.05;;;;;;;;;;5103610;28;20071;-44
2024/03/21 09:38:32;;;;;;;23.92;17.83;;;;;;;;;;5104104;28;20016;-42
2024/03/21 09:41:01;;;;;;;18.95;16.85;;;;;;;;;;5104385;28;20087;-45
2024/03/21 09:43:29;;;;;;;20.45;17.42;;;;;;;;;;5104235;28;20088;-40
2024/03/21 09:45:55;;;;;;;24.20;17.75;;;;;;;;;;5104539;28;20043;-39
2024/03/21 09:48:22;;;;;;;25.13;18.05;;;;;;;;;;5103898;28;20087;-52
2024/03/21 09:50:49;;;;;;;26.40;17.15;;;;;;;;;;5104284;28;20036;-43
2024/03/21 09:53:16;;;;;;;23.48;17.52;;;;;;;;;;5103649;28;20024;-40
2024/03/21 09:55:46;;;;;;;22.73;17.92;;;;;;;;;;5104237;28;20326;-37
2024/03/21 09:58:14;;;;;;;23.05;18.58;;;;;;;;;;5103975;28;20058;-43
2024/03/21 10:00:44;;;;;;;24.35;17.70;;;;;;;;;;5104341;28;20024;-37
2024/03/21 10:03:15;;;;;;;21.05;17.55;;;;;;;;;;5103810;28;20137;-38
2024/03/21 10:05:45;;;;;;;21.60;17.95;;;;;;;;;;5103262;28;20032;-38
2024/03/21 10:08:12;;;;;;;21.70;18.05;;;;;;;;;;5104139;28;20084;-39
2024/03/21 10:10:39;;;;;;;26.20;17.58;;;;;;;;;;5103017;28;20231;-43
2024/03/21 10:13:05;;;;;;;21.63;17.83;;;;;;;;;;5108090;28;20237;-41
2024/03/21 10:15:32;;;;;;;23.52;17.13;;;;;;;;;;5108216;28;20023;-40
2024/03/21 10:18:02;;;;;;;25.73;17.80;;;;;;;;;;5107643;28;20027;-42
2024/03/21 10:20:29;;;;;;;23.58;17.08;;;;;;;;;;5101933;28;20238;-41
2024/03/21 10:22:56;;;;;;;23.75;17.05;;;;;;;;;;5101295;28;20362;-44
2024/03/21 10:25:23;;;;;;;21.45;16.80;;;;;;;;;;5105249;28;20032;-39
2024/03/21 10:27:49;;;;;;;24.17;17.15;;;;;;;;;;5107654;28;20079;-40
2024/03/21 10:30:21;;;;;;;21.75;16.60;;;;;;;;;;5107734;28;20091;-40
2024/03/21 10:32:48;;;;;;;23.77;17.25;;;;;;;;;;5107395;28;20220;-47
2024/03/21 10:35:16;;;;;;;23.65;16.52;;;;;;;;;;5107515;28;20287;-45
2024/03/21 10:37:43;;;;;;;26.48;17.30;;;;;;;;;;5107348;28;20012;-49
2024/03/21 10:40:12;;;;;;;24.88;17.25;;;;;;;;;;5106199;28;20104;-39
2024/03/21 10:42:40;;;;;;;32.35;16.92;;;;;;;;;;5105787;28;20069;-40
2024/03/21 10:45:08;;;;;;;31.15;18.05;;;;;;;;;;5105803;28;20066;-42
2024/03/21 10:47:35;;;;;;;29.63;17.83;;;;;;;;;;5105642;28;20047;-46
2024/03/21 10:50:02;;;;;;;32.20;17.85;;;;;;;;;;5105925;28;20027;-44
2024/03/21 10:52:28;;;;;;;36.97;17.90;;;;;;;;;;5105651;28;20012;-42
2024/03/21 10:54:55;;;;;;;27.00;17.35;;;;;;;;;;5106676;28;20024;-40
2024/03/21 10:57:27;;;;;;;29.85;16.77;;;;;;;;;;5107080;28;20012;-51
2024/03/21 10:59:58;;;;;;;26.73;17.45;;;;;;;;;;5106787;28;20220;-44
2024/03/21 11:02:30;;;;;;;32.63;17.42;;;;;;;;;;5106956;28;20246;-45
2024/03/21 11:04:57;;;;;;;30.05;17.15;;;;;;;;;;5107113;28;20028;-48
2024/03/21 11:07:24;;;;;;;33.20;16.85;;;;;;;;;;5107059;28;20050;-58
2024/03/21 11:09:50;;;;;;;36.97;18.55;;;;;;;;;;5105616;28;20023;-52
2024/03/21 11:12:17;;;;;;;36.63;18.25;;;;;;;;;;5091447;28;20016;-48
2024/03/21 11:14:45;;;;;;;37.88;17.45;;;;;;;;;;5086435;28;20063;-40
2024/03/21 11:17:15;;;;;;;46.42;18.00;;;;;;;;;;5086333;28;20044;-39
2024/03/21 11:19:42;;;;;;;37.03;17.45;;;;;;;;;;5086481;28;20028;-43
2024/03/21 11:22:11;;;;;;;33.88;17.70;;;;;;;;;;5085193;28;20028;-40
2024/03/21 11:24:38;;;;;;;32.63;17.25;;;;;;;;;;5086283;28;20032;-44
2024/03/21 11:27:07;;;;;;;51.67;22.48;;;;;;;;;;5086223;28;20024;-39
2024/03/21 11:29:33;;;;;;;48.10;20.95;;;;;;;;;;5086408;28;20224;-45
2024/03/21 11:32:00;;;;;;;73.28;21.33;;;;;;;;;;5086379;28;20231;-43
2024/03/21 11:34:27;;;;;;;49.35;19.75;;;;;;;;;;5086224;28;20084;-46
2024/03/21 11:36:54;;;;;;;40.53;19.70;;;;;;;;;;5087865;28;20107;-44
2024/03/21 11:39:20;;;;;;;40.85;20.10;;;;;;;;;;5094954;28;20051;-41
2024/03/21 11:41:47;;;;;;;37.45;19.38;;;;;;;;;;5085885;28;20020;-44
2024/03/21 11:44:14;;;;;;;29.60;18.92;;;;;;;;;;5085609;28;20339;-38
2024/03/21 11:46:41;;;;;;;33.30;17.80;;;;;;;;;;5085799;28;20020;-40
2024/03/21 11:49:12;;;;;;;35.42;17.73;;;;;;;;;;5085786;28;20025;-40
2024/03/21 11:51:39;;;;;;;26.63;18.13;;;;;;;;;;5085547;28;20025;-51
2024/03/21 11:54:07;;;;;;;25.63;18.48;;;;;;;;;;5085712;28;20070;-43
2024/03/21 11:56:35;;;;;;;30.25;18.70;;;;;;;;;;5085673;28;20020;-47
2024/03/21 11:59:01;;;;;;;26.35;17.83;;;;;;;;;;5085363;28;20012;-47
2024/03/21 12:01:28;;;;;;;26.75;17.67;;;;;;;;;;5085643;28;20020;-49
2024/03/21 12:03:55;;;;;;;25.17;18.15;;;;;;;;;;5085853;28;20017;-39
2024/03/21 12:06:21;;;;;;;27.05;17.60;;;;;;;;;;5085231;28;20029;-44
2024/03/21 12:08:50;;;;;;;25.92;17.83;;;;;;;;;;5085392;28;20047;-39
2024/03/21 12:11:18;;;;;;;27.77;17.58;;;;;;;;;;5085693;28;20024;-40
2024/03/21 12:13:44;;;;;;;30.63;18.25;;;;;;;;;;5085168;28;20062;-39
2024/03/21 12:16:21;;;;;;;29.17;17.63;;;;;;;;;;5088593;28;20020;-43
2024/03/21 12:18:48;;;;;;;28.98;17.35;;;;;;;;;;5094175;28;20083;-38
2024/03/21 12:21:16;;;;;;;32.22;17.73;;;;;;;;;;5085515;28;20331;-45
2024/03/21 12:23:43;;;;;;;26.90;18.63;;;;;;;;;;5085149;28;20029;-43
2024/03/21 12:26:13;;;;;;;28.33;18.60;;;;;;;;;;5085385;28;20195;-45
2024/03/21 12:28:40;;;;;;;32.60;18.10;;;;;;;;;;5085075;28;20028;-41
2024/03/21 12:31:09;;;;;;;26.25;18.42;;;;;;;;;;5084762;28;20035;-38
2024/03/21 12:33:35;;;;;;;21.02;16.60;;;;;;;;;;5084535;28;20277;-42
2024/03/21 12:36:02;;;;;;;28.38;18.13;;;;;;;;;;5084728;28;20210;-44
2024/03/21 12:38:32;;;;;;;26.75;18.77;;;;;;;;;;5084748;28;20053;-39
2024/03/21 12:41:01;;;;;;;30.52;19.38;;;;;;;;;;5084984;28;20232;-38
2024/03/21 12:43:28;;;;;;;26.05;18.75;;;;;;;;;;5084674;28;20064;-40
2024/03/21 12:45:58;;;;;;;31.80;19.25;;;;;;;;;;5085099;28;20245;-45
2024/03/21 12:48:28;;;;;;;33.63;24.55;;;;;;;;;;5084540;28;20347;-41
2024/03/21 12:50:54;;;;;;;44.65;29.73;;;;;;;;;;5084882;28;20079;-39
2024/03/21 12:53:22;;;;;;;41.75;26.70;;;;;;;;;;5084482;28;20016;-41
2024/03/21 12:55:49;;;;;;;54.85;25.98;;;;;;;;;;5084619;28;20346;-47
2024/03/21 12:58:16;;;;;;;42.15;24.65;;;;;;;;;;5084400;28;20024;-40
2024/03/21 13:00:43;;;;;;;38.25;23.00;;;;;;;;;;5084752;28;20039;-42
2024/03/21 13:03:10;;;;;;;35.72;22.10;;;;;;;;;;5084178;28;20039;-41
2024/03/21 13:05:37;;;;;;;34.15;21.10;;;;;;;;;;5084605;28;20033;-40
2024/03/21 13:08:04;;;;;;;39.33;21.98;;;;;;;;;;5084217;28;20193;-41
2024/03/21 13:10:31;;;;;;;36.67;21.95;;;;;;;;;;5085562;28;20087;-41
2024/03/21 13:12:58;;;;;;;54.10;22.42;;;;;;;;;;5104544;28;20114;-42
2024/03/21 13:15:25;;;;;;;40.15;23.10;;;;;;;;;;5104728;28;20024;-44
2024/03/21 13:17:51;;;;;;;39.92;22.48;;;;;;;;;;5104304;28;20075;-41
2024/03/21 13:20:19;;;;;;;40.28;22.13;;;;;;;;;;5104559;28;20035;-37
2024/03/21 13:22:49;;;;;;;40.92;22.83;;;;;;;;;;5104324;28;20030;-41
2024/03/21 13:25:16;;;;;;;36.53;22.30;;;;;;;;;;5104363;28;20304;-41
2024/03/21 13:27:42;;;;;;;38.10;24.02;;;;;;;;;;5104318;28;20020;-42
2024/03/21 13:30:10;;;;;;;36.17;24.05;;;;;;;;;;5104389;28;20032;-38
2024/03/21 13:32:40;;;;;;;41.22;23.60;;;;;;;;;;5104106;28;20023;-46
2024/03/21 13:35:10;;;;;;;37.75;24.42;;;;;;;;;;5104106;28;20340;-39
2024/03/21 13:37:37;;;;;;;43.58;25.15;;;;;;;;;;5104148;28;20023;-48
2024/03/21 13:40:05;;;;;;;43.30;25.48;;;;;;;;;;5104163;28;20020;-48
2024/03/21 13:42:32;;;;;;;35.63;24.65;;;;;;;;;;5104109;28;20216;-38
2024/03/21 13:44:58;;;;;;;45.97;25.15;;;;;;;;;;5103834;28;20192;-41
2024/03/21 13:47:25;;;;;;;42.38;25.90;;;;;;;;;;5103942;28;20230;-45
2024/03/21 13:49:51;;;;;;;49.83;26.40;;;;;;;;;;5104116;28;20152;-40
2024/03/21 13:52:18;;;;;;;42.15;26.00;;;;;;;;;;5103920;28;20224;-50
2024/03/21 13:54:45;;;;;;;54.80;25.45;;;;;;;;;;5103974;28;20024;-46
2024/03/21 13:57:11;;;;;;;39.08;25.13;;;;;;;;;;5104078;28;20084;-47
2024/03/21 13:59:38;;;;;;;39.40;24.73;;;;;;;;;;5103156;28;20034;-38
2024/03/21 14:02:05;;;;;;;56.55;25.27;;;;;;;;;;5084274;28;20021;-38
2024/03/21 14:04:32;;;;;;;49.85;25.23;;;;;;;;;;5093392;28;20052;-45
2024/03/21 14:06:58;;;;;;;42.15;24.23;;;;;;;;;;5086704;28;20021;-46
2024/03/21 14:09:25;;;;;;;43.28;24.63;;;;;;;;;;5103831;28;20040;-43
2024/03/21 14:11:51;;;;;;;43.03;23.70;;;;;;;;;;5103734;28;20065;-39
2024/03/21 14:14:18;;;;;;;40.65;23.90;;;;;;;;;;5103726;28;20036;-44
2024/03/21 14:16:44;;;;;;;43.42;25.70;;;;;;;;;;5103674;28;20015;-44
2024/03/21 14:19:11;;;;;;;40.10;25.20;;;;;;;;;;5103754;28;20076;-46
2024/03/21 14:21:38;;;;;;;35.67;24.65;;;;;;;;;;5103812;28;20024;-44
2024/03/21 14:24:04;;;;;;;33.47;24.52;;;;;;;;;;5103534;28;20020;-41